Time;durP1;ratioP1;P1;durP2;ratioP2;P2;SDS_P1;SDS_P2;PMS_P1;PMS_P2;Temp;Humidity;BMP_temperature;BMP_pressure;BME280_temperature;BME280_humidity;BME280_pressure;Samples;Min_cycle;Max_cycle;Signal;HPM_P1;HPM_P2
2023/04/05 00:01:52;;;;;;;;;;;;;;;0.67;100.00;102447.78;5030428;28;19920;-73
2023/04/05 00:04:19;;;;;;;;;;;;;;;0.65;100.00;102451.34;5032693;28;19920;-73
2023/04/05 00:06:45;;;;;;;;;;;;;;;0.69;100.00;102448.63;5024290;28;20391;-73
2023/04/05 00:09:10;;;;;;;;;;;;;;;0.64;100.00;102439.88;5031865;28;19920;-72
2023/04/05 00:11:35;;;;;;;;;;;;;;;0.62;100.00;102438.13;5030358;28;20236;-73
2023/04/05 00:14:01;;;;;;;;;;;;;;;0.57;100.00;102439.06;5028943;28;19921;-73
2023/04/05 00:16:27;;;;;;;;;;;;;;;0.52;100.00;102437.38;5027194;28;19967;-73
2023/04/05 00:18:52;;;;;;;;;;;;;;;0.50;100.00;102441.78;5027359;28;19946;-73
2023/04/05 00:21:21;;;;;;;;;;;;;;;0.51;100.00;102440.91;5031180;28;19950;-73
2023/04/05 00:23:47;;;;;;;;;;;;;;;0.53;100.00;102441.75;5031557;28;19921;-72
2023/04/05 00:26:12;;;;;;;;;;;;;;;0.48;100.00;102436.50;5035826;28;19921;-73
2023/04/05 00:28:37;;;;;;;;;;;;;;;0.48;100.00;102433.00;5036239;28;20432;-73
2023/04/05 00:31:03;;;;;;;;;;;;;;;0.51;100.00;102433.81;5031512;28;20683;-73
2023/04/05 00:33:29;;;;;;;;;;;;;;;0.48;100.00;102425.94;5036916;28;20504;-73
2023/04/05 00:35:54;;;;;;;;;;;;;;;0.43;100.00;102428.63;5036419;28;19978;-73
2023/04/05 00:38:19;;;;;;;;;;;;;;;0.42;100.00;102433.91;5018339;28;20597;-72
2023/04/05 00:40:45;;;;;;;;;;;;;;;0.36;100.00;102426.91;5018146;28;19955;-73
2023/04/05 00:43:10;;;;;;;;;;;;;;;0.34;100.00;102431.34;5034565;28;19960;-72
2023/04/05 00:45:35;;;;;;;;;;;;;;;0.30;100.00;102421.69;5030962;28;20346;-73
2023/04/05 00:48:00;;;;;;;;;;;;;;;0.20;100.00;102420.03;5019293;28;19928;-73
2023/04/05 00:50:29;;;;;;;;;;;;;;;-0.18;100.00;102370.16;5033232;28;19924;-73
2023/04/05 00:52:54;;;;;;;;;;;;;;;0.16;100.00;102420.94;5027356;28;20072;-72
2023/04/05 00:55:19;;;;;;;;;;;;;;;0.11;100.00;102418.38;5033166;28;20669;-73
2023/04/05 00:57:45;;;;;;;;;;;;;;;0.09;100.00;102422.78;5032988;28;20027;-73
2023/04/05 01:00:10;;;;;;;;;;;;;;;0.12;100.00;102422.75;5016934;28;20396;-72
2023/04/05 01:02:48;;;;;;;;;;;;;;;0.07;100.00;102412.22;5016240;28;20448;-73
2023/04/05 01:05:20;;;;;;;;;;;;;;;0.09;100.00;102414.84;5029855;28;19920;-73
2023/04/05 01:07:50;;;;;;;;;;;;;;;0.07;100.00;102408.72;5037819;28;20521;-72
2023/04/05 01:10:15;;;;;;;;;;;;;;;-0.02;100.00;102412.31;5040952;28;20361;-72
2023/04/05 01:12:40;;;;;;;;;;;;;;;-0.09;100.00;102406.19;5038415;28;20351;-73
2023/04/05 01:15:06;;;;;;;;;;;;;;;-0.14;100.00;102405.38;5036611;28;20344;-73
2023/04/05 01:17:37;;;;;;;;;;;;;;;-0.13;100.00;102407.09;5040446;28;19964;-73
2023/04/05 01:20:09;;;;;;;;;;;;;;;-0.20;100.00;102405.41;5040800;28;19928;-73
2023/04/05 01:22:36;;;;;;;;;;;;;;;-0.21;100.00;102409.78;5053343;28;19920;-73
2023/04/05 01:25:20;;;;;;;;;;;;;;;-0.26;100.00;102408.06;5037599;28;20440;-73
2023/04/05 01:27:59;;;;;;;;;;;;;;;-0.29;100.00;102403.72;5032209;28;19958;-73
2023/04/05 01:30:38;;;;;;;;;;;;;;;-0.34;100.00;102405.50;5036200;28;19921;-72
2023/04/05 01:33:36;;;;;;;;;;;;;;;-0.36;100.00;102405.50;5038980;28;20342;-73
2023/04/05 01:36:17;;;;;;;;;;;;;;;-0.36;100.00;102402.00;5029648;28;19920;-73
2023/04/05 01:38:42;;;;;;;;;;;;;;;-0.35;100.00;102391.41;5035922;28;20050;-72
2023/04/05 01:41:07;;;;;;;;;;;;;;;-0.36;100.00;102387.00;5036134;28;19920;-72
2023/04/05 01:43:32;;;;;;;;;;;;;;;-0.33;100.00;102394.06;5037144;28;19925;-73
2023/04/05 01:45:57;;;;;;;;;;;;;;;-0.32;100.00;102394.03;5045592;28;19920;-73
2023/04/05 01:48:23;;;;;;;;;;;;;;;-0.34;100.00;102395.81;5035651;28;19967;-73
2023/04/05 01:50:48;;;;;;;;;;;;;;;-0.42;100.00;102389.72;5038938;28;20359;-72
2023/04/05 01:53:13;;;;;;;;;;;;;;;-0.48;100.00;102395.03;5054818;28;19920;-72
2023/04/05 01:55:38;;;;;;;;;;;;;;;-0.57;100.00;102392.44;5022109;28;20305;-72
2023/04/05 01:58:04;;;;;;;;;;;;;;;-0.56;100.00;102388.91;5042256;28;20015;-73
2023/04/05 02:00:29;;;;;;;;;;;;;;;-0.60;100.00;102393.34;5019023;28;20172;-73
2023/04/05 02:02:54;;;;;;;;;;;;;;;-0.57;100.00;102385.41;5052926;28;19917;-73
2023/04/05 02:05:20;;;;;;;;;;;;;;;-0.58;100.00;102386.31;5038895;28;19916;-74
2023/04/05 02:07:45;;;;;;;;;;;;;;;-0.62;100.00;102380.16;5039174;28;19916;-74
2023/04/05 02:10:10;;;;;;;;;;;;;;;-0.69;100.00;102380.22;5050993;28;19921;-74
2023/04/05 02:12:35;;;;;;;;;;;;;;;-0.78;100.00;102386.41;5037084;28;19921;-74
2023/04/05 02:15:01;;;;;;;;;;;;;;;-0.81;100.00;102386.44;5036639;28;19920;-74
2023/04/05 02:17:32;;;;;;;;;;;;;;;-0.83;100.00;102383.81;5021942;28;19931;-74
2023/04/05 02:20:01;;;;;;;;;;;;;;;-0.91;100.00;102382.97;5039682;28;19981;-74
2023/04/05 02:22:26;;;;;;;;;;;;;;;-0.88;100.00;102377.69;5036028;28;20283;-74
2023/04/05 02:24:51;;;;;;;;;;;;;;;-0.87;100.00;102383.81;5056582;28;19920;-73
2023/04/05 02:27:17;;;;;;;;;;;;;;;-0.86;100.00;102378.56;5038370;28;19921;-74
2023/04/05 02:29:42;;;;;;;;;;;;;;;-0.81;100.00;102376.78;5037903;28;19963;-74
2023/04/05 02:32:07;;;;;;;;;;;;;;;-0.72;100.00;102373.19;5052934;28;19999;-73
2023/04/05 02:34:33;;;;;;;;;;;;;;;-0.73;100.00;102371.44;5034295;28;19967;-74
2023/04/05 02:36:58;;;;;;;;;;;;;;;-0.80;100.00;102370.63;5038590;28;19916;-74
2023/04/05 02:39:23;;;;;;;;;;;;;;;-0.87;100.00;102373.25;5016985;28;19925;-74
2023/04/05 02:41:48;;;;;;;;;;;;;;;-0.88;100.00;102369.78;5033724;28;20393;-74
2023/04/05 02:44:14;;;;;;;;;;;;;;;-0.88;100.00;102371.50;5019608;28;20267;-74
2023/04/05 02:46:39;;;;;;;;;;;;;;;-0.97;100.00;102373.34;5020159;28;19979;-73
2023/04/05 02:49:05;;;;;;;;;;;;;;;-1.03;100.00;102365.44;5041156;28;19916;-74
2023/04/05 02:51:33;;;;;;;;;;;;;;;-1.04;100.00;102365.44;5054044;28;19943;-74
2023/04/05 02:53:58;;;;;;;;;;;;;;;-1.06;100.00;102366.31;5035478;28;19921;-74
2023/04/05 02:56:23;;;;;;;;;;;;;;;-1.11;100.00;102362.84;5020897;28;20337;-74
2023/04/05 02:58:48;;;;;;;;;;;;;;;-1.13;100.00;102361.09;5038213;28;20451;-74
2023/04/05 03:01:16;;;;;;;;;;;;;;;-1.17;100.00;102365.50;5035090;28;20056;-74
2023/04/05 03:03:41;;;;;;;;;;;;;;;-1.15;100.00;102366.38;5056750;28;19959;-74
2023/04/05 03:06:10;;;;;;;;;;;;;;;-1.16;100.00;102366.38;5022554;28;19921;-74
2023/04/05 03:08:42;;;;;;;;;;;;;;;-1.16;100.00;102361.09;5031007;28;19920;-74
2023/04/05 03:11:07;;;;;;;;;;;;;;;-1.14;100.00;102354.06;5038735;28;20327;-74
2023/04/05 03:13:33;;;;;;;;;;;;;;;-1.16;100.00;102356.72;5036095;28;20335;-74
2023/04/05 03:15:58;;;;;;;;;;;;;;;-1.09;100.00;102350.53;5051299;28;19927;-74
2023/04/05 03:18:28;;;;;;;;;;;;;;;-1.09;100.00;102354.91;5038412;28;19920;-74
2023/04/05 03:20:56;;;;;;;;;;;;;;;-1.11;100.00;102352.31;5034503;28;20627;-74
2023/04/05 03:23:26;;;;;;;;;;;;;;;-1.21;100.00;102345.31;5019604;28;19927;-74
2023/04/05 03:25:57;;;;;;;;;;;;;;;-1.24;100.00;102342.69;5053428;28;19920;-74
2023/04/05 03:28:23;;;;;;;;;;;;;;;-1.24;100.00;102346.22;5034534;28;20412;-74
2023/04/05 03:30:48;;;;;;;;;;;;;;;-1.24;100.00;102343.56;5031621;28;19959;-74
2023/04/05 03:33:13;;;;;;;;;;;;;;;-1.27;100.00;102345.31;5033464;28;20493;-74
2023/04/05 03:35:38;;;;;;;;;;;;;;;-1.29;100.00;102344.44;5033096;28;19927;-74
2023/04/05 03:38:03;;;;;;;;;;;;;;;-1.27;100.00;102337.44;5054341;28;19920;-74
2023/04/05 03:40:29;;;;;;;;;;;;;;;-1.30;100.00;102338.31;5062801;28;19924;-74
2023/04/05 03:42:54;;;;;;;;;;;;;;;-1.31;100.00;102343.59;5019997;28;19970;-74
2023/04/05 03:45:20;;;;;;;;;;;;;;;-1.30;100.00;102338.31;5037063;28;20564;-73
2023/04/05 03:47:45;;;;;;;;;;;;;;;-1.33;100.00;102346.25;5021417;28;19961;-74
2023/04/05 03:50:10;;;;;;;;;;;;;;;-1.40;100.00;102347.13;5040796;28;19920;-74
2023/04/05 03:52:35;;;;;;;;;;;;;;;-1.42;100.00;102333.09;5020561;28;20251;-74
2023/04/05 03:55:01;;;;;;;;;;;;;;;-1.45;100.00;102330.47;5036005;28;19927;-74
2023/04/05 03:57:27;;;;;;;;;;;;;;;-1.45;100.00;102335.72;5026808;28;19923;-74
2023/04/05 03:59:53;;;;;;;;;;;;;;;-1.46;100.00;102326.97;5030962;28;19928;-73
2023/04/05 04:02:18;;;;;;;;;;;;;;;-1.49;100.00;102332.25;5055821;28;19916;-73
2023/04/05 04:04:43;;;;;;;;;;;;;;;-1.46;100.00;102321.69;5034962;28;19998;-73
2023/04/05 04:07:08;;;;;;;;;;;;;;;-1.45;100.00;102320.81;5042483;28;19963;-73
2023/04/05 04:09:34;;;;;;;;;;;;;;;-1.48;100.00;102326.09;5053440;28;20003;-74
2023/04/05 04:11:59;;;;;;;;;;;;;;;-1.55;100.00;102322.59;5025907;28;19921;-74
2023/04/05 04:14:25;;;;;;;;;;;;;;;-1.56;100.00;102326.13;5058154;28;19917;-74
2023/04/05 04:16:50;;;;;;;;;;;;;;;-1.58;100.00;102327.88;5042040;28;19970;-74
2023/04/05 04:19:16;;;;;;;;;;;;;;;-1.64;100.00;102329.66;5053206;28;20019;-74
2023/04/05 04:21:50;;;;;;;;;;;;;;;-1.68;100.00;102326.16;5017207;28;19921;-74
2023/04/05 04:24:19;;;;;;;;;;;;;;;-1.69;100.00;102327.03;5035639;28;20290;-74
2023/04/05 04:26:44;;;;;;;;;;;;;;;-1.66;100.00;102317.38;5018794;28;20541;-74
2023/04/05 04:29:11;;;;;;;;;;;;;;;-1.69;100.00;102319.13;5016873;28;21049;-73
2023/04/05 04:31:37;;;;;;;;;;;;;;;-1.66;100.00;102322.66;5030135;28;19924;-73
2023/04/05 04:34:04;;;;;;;;;;;;;;;-2.01;100.00;102263.03;5035079;28;19921;-73
2023/04/05 04:36:33;;;;;;;;;;;;;;;-1.66;100.00;102321.75;5035396;28;19925;-74
2023/04/05 04:38:59;;;;;;;;;;;;;;;-1.66;100.00;102316.47;5026497;28;20331;-73
2023/04/05 04:41:25;;;;;;;;;;;;;;;-1.66;100.00;102324.38;5036209;28;19927;-73
2023/04/05 04:43:53;;;;;;;;;;;;;;;-1.73;100.00;102317.41;5036624;28;19993;-73
2023/04/05 04:46:19;;;;;;;;;;;;;;;-1.76;100.00;102325.31;5042854;28;19927;-73
2023/04/05 04:48:46;;;;;;;;;;;;;;;-1.78;100.00;102320.03;5018889;28;19917;-73
2023/04/05 04:51:11;;;;;;;;;;;;;;;-1.78;100.00;102324.44;5032850;28;19978;-71
2023/04/05 04:53:36;;;;;;;;;;;;;;;-1.84;100.00;102325.31;5034738;28;19925;-73
2023/04/05 04:56:05;;;;;;;;;;;;;;;-1.88;100.00;102323.56;5031028;28;19930;-73
2023/04/05 04:58:30;;;;;;;;;;;;;;;-1.86;100.00;102327.09;5032161;28;20247;-73
2023/04/05 05:00:57;;;;;;;;;;;;;;;-1.84;100.00;102330.56;5032965;28;19996;-73
2023/04/05 05:03:22;;;;;;;;;;;;;;;-1.92;100.00;102324.47;5033906;28;19920;-73
2023/04/05 05:05:52;;;;;;;;;;;;;;;-1.87;100.00;102325.34;5048333;28;19920;-73
2023/04/05 05:08:17;;;;;;;;;;;;;;;-1.85;100.00;102326.19;5045770;28;19924;-73
2023/04/05 05:10:43;;;;;;;;;;;;;;;-1.84;100.00;102328.81;5029090;28;20378;-73
2023/04/05 05:13:10;;;;;;;;;;;;;;;-1.84;100.00;102322.66;5052741;28;20023;-73
2023/04/05 05:15:35;;;;;;;;;;;;;;;-1.87;100.00;102327.97;5016123;28;19921;-73
2023/04/05 05:18:00;;;;;;;;;;;;;;;-1.93;100.00;102328.84;5018371;28;19920;-73
2023/04/05 05:20:27;;;;;;;;;;;;;;;-1.95;100.00;102325.31;5026968;28;19970;-73
2023/04/05 05:22:52;;;;;;;;;;;;;;;-1.96;100.00;102328.84;5016759;28;20025;-73
2023/04/05 05:25:18;;;;;;;;;;;;;;;-1.91;100.00;102323.59;5019940;28;20246;-73
2023/04/05 05:27:44;;;;;;;;;;;;;;;-1.94;100.00;102329.72;5039770;28;20058;-73
2023/04/05 05:30:09;;;;;;;;;;;;;;;-1.90;100.00;102334.09;5036034;28;20007;-73
2023/04/05 05:32:35;;;;;;;;;;;;;;;-1.90;100.00;102330.59;5015481;28;19917;-73
2023/04/05 05:35:00;;;;;;;;;;;;;;;-1.84;100.00;102331.47;5038249;28;19920;-73
2023/04/05 05:37:29;;;;;;;;;;;;;;;-1.84;100.00;102322.66;5037926;28;20317;-73
2023/04/05 05:39:55;;;;;;;;;;;;;;;-1.79;100.00;102326.16;5025450;28;20293;-73
2023/04/05 05:42:20;;;;;;;;;;;;;;;-1.76;100.00;102322.69;5041964;28;19913;-73
2023/04/05 05:44:45;;;;;;;;;;;;;;;-1.67;100.00;102325.25;5015557;28;20248;-73
2023/04/05 05:47:10;;;;;;;;;;;;;;;-1.65;100.00;102320.88;5033583;28;20333;-73
2023/04/05 05:49:36;;;;;;;;;;;;;;;-1.66;100.00;102316.47;5017328;28;20314;-73
2023/04/05 05:52:02;;;;;;;;;;;;;;;-1.65;100.00;102315.59;5027861;28;19924;-73
2023/04/05 05:54:27;;;;;;;;;;;;;;;-1.59;100.00;102317.38;5022005;28;19966;-73
2023/04/05 05:56:52;;;;;;;;;;;;;;;-1.49;100.00;102312.94;5036707;28;19959;-73
2023/04/05 05:59:17;;;;;;;;;;;;;;;-1.39;100.00;102322.53;5034216;28;20013;-73
2023/04/05 06:01:45;;;;;;;;;;;;;;;-1.30;100.00;102316.34;5037160;28;20006;-73
2023/04/05 06:04:10;;;;;;;;;;;;;;;-1.23;100.00;102311.06;5039230;28;19920;-73
2023/04/05 06:06:35;;;;;;;;;;;;;;;-1.12;100.00;102318.91;5022014;28;20499;-73
2023/04/05 06:09:01;;;;;;;;;;;;;;;-1.02;100.00;102310.94;5034171;28;20486;-73
2023/04/05 06:11:26;;;;;;;;;;;;;;;-0.91;100.00;102309.13;5020612;28;19924;-73
2023/04/05 06:13:51;;;;;;;;;;;;;;;-0.79;100.00;102308.16;5034485;28;20364;-73
2023/04/05 06:16:17;;;;;;;;;;;;;;;-0.67;100.00;102308.09;5033713;28;20066;-73
2023/04/05 06:18:42;;;;;;;;;;;;;;;-0.53;100.00;102313.25;5014917;28;20373;-73
2023/04/05 06:21:07;;;;;;;;;;;;;;;-0.42;100.00;102314.94;5043835;28;19921;-73
2023/04/05 06:23:32;;;;;;;;;;;;;;;-0.25;100.00;102318.28;5053961;28;20319;-73
2023/04/05 06:25:58;;;;;;;;;;;;;;;-0.11;100.00;102314.69;5017003;28;20004;-73
2023/04/05 06:28:23;;;;;;;;;;;;;;;0.08;100.00;102325.94;5030960;28;20298;-74
2023/04/05 06:30:48;;;;;;;;;;;;;;;0.24;100.00;102327.53;5038581;28;19921;-73
2023/04/05 06:33:13;;;;;;;;;;;;;;;0.38;100.00;102327.38;5045126;28;20532;-73
2023/04/05 06:35:39;;;;;;;;;;;;;;;0.50;100.00;102317.56;5034683;28;19920;-74
2023/04/05 06:38:04;;;;;;;;;;;;;;;0.65;100.00;102324.44;5014194;28;19993;-74
2023/04/05 06:40:29;;;;;;;;;;;;;;;0.80;100.00;102324.22;5050170;28;19935;-73
2023/04/05 06:42:55;;;;;;;;;;;;;;;0.99;100.00;102321.34;5054060;28;20519;-73
2023/04/05 06:45:20;;;;;;;;;;;;;;;1.15;100.00;102317.59;5014663;28;19974;-73
2023/04/05 06:47:45;;;;;;;;;;;;;;;1.37;100.00;102314.63;5054737;28;19920;-73
2023/04/05 06:50:10;;;;;;;;;;;;;;;1.58;100.00;102318.72;5036005;28;19924;-73
2023/04/05 06:52:36;;;;;;;;;;;;;;;1.81;100.00;102325.38;5020110;28;19928;-73
2023/04/05 06:55:02;;;;;;;;;;;;;;;2.05;100.00;102315.25;5036379;28;19923;-73
2023/04/05 06:57:27;;;;;;;;;;;;;;;2.33;100.00;102320.03;5037701;28;19978;-74
2023/04/05 06:59:53;;;;;;;;;;;;;;;2.40;100.00;102296.00;5050835;28;20387;-73
2023/04/05 07:02:18;;;;;;;;;;;;;;;2.89;100.00;102329.50;5035354;28;20469;-73
2023/04/05 07:04:43;;;;;;;;;;;;;;;3.27;100.00;102323.34;5041345;28;20343;-74
2023/04/05 07:07:09;;;;;;;;;;;;;;;3.60;100.00;102322.56;5052549;28;19920;-74
2023/04/05 07:09:34;;;;;;;;;;;;;;;3.88;100.00;102327.19;5054074;28;21368;-74
2023/04/05 07:12:01;;;;;;;;;;;;;;;4.06;100.00;102320.50;5018314;28;20197;-74
2023/04/05 07:14:28;;;;;;;;;;;;;;;4.38;100.00;102321.41;5018275;28;19924;-74
2023/04/05 07:16:53;;;;;;;;;;;;;;;4.45;93.91;102322.97;5036155;28;19921;-74
2023/04/05 07:19:19;;;;;;;;;;;;;;;4.57;91.60;102323.56;5037169;28;19966;-74
2023/04/05 07:21:44;;;;;;;;;;;;;;;4.42;90.32;102324.88;5036844;28;20007;-73
2023/04/05 07:24:09;;;;;;;;;;;;;;;4.72;89.37;102317.78;5036227;28;20003;-74
2023/04/05 07:26:36;;;;;;;;;;;;;;;5.00;94.13;102316.09;5018656;28;20006;-74
2023/04/05 07:29:01;;;;;;;;;;;;;;;5.13;89.21;102316.59;5040815;28;19920;-74
2023/04/05 07:31:26;;;;;;;;;;;;;;;5.34;88.87;102307.91;5014075;28;20260;-74
2023/04/05 07:33:52;;;;;;;;;;;;;;;5.46;82.95;102311.97;5045132;28;19936;-74
2023/04/05 07:36:17;;;;;;;;;;;;;;;5.33;80.77;102311.50;5030179;28;19925;-74
2023/04/05 07:38:43;;;;;;;;;;;;;;;5.39;80.99;102313.06;5023006;28;19932;-74
2023/04/05 07:41:09;;;;;;;;;;;;;;;5.66;84.31;102310.44;5037086;28;20402;-74
2023/04/05 07:43:34;;;;;;;;;;;;;;;5.90;79.77;102319.41;5037350;28;19920;-74
2023/04/05 07:46:00;;;;;;;;;;;;;;;5.76;78.13;102322.53;5037030;28;20111;-74
2023/04/05 07:48:25;;;;;;;;;;;;;;;6.07;82.41;102313.50;5023476;28;19921;-74
2023/04/05 07:50:51;;;;;;;;;;;;;;;6.34;80.59;102313.44;5035155;28;20272;-74
2023/04/05 07:53:17;;;;;;;;;;;;;;;6.08;85.51;102309.91;5035874;28;19927;-74
2023/04/05 07:55:42;;;;;;;;;;;;;;;6.26;78.40;102310.19;5044449;28;19920;-74
2023/04/05 07:58:07;;;;;;;;;;;;;;;6.54;90.51;102309.16;5040616;28;19971;-74
2023/04/05 08:00:32;;;;;;;;;;;;;;;6.71;77.77;102317.41;5034687;28;20394;-73
2023/04/05 08:02:57;;;;;;;;;;;;;;;6.93;78.56;102305.03;5043486;28;19967;-74
2023/04/05 08:05:23;;;;;;;;;;;;;;;7.26;73.34;102304.63;5036644;28;19927;-74
2023/04/05 08:07:48;;;;;;;;;;;;;;;7.61;67.87;102304.97;5054353;28;19924;-75
2023/04/05 08:10:13;;;;;;;;;;;;;;;7.89;65.57;102302.00;5039921;28;19927;-75
2023/04/05 08:12:38;;;;;;;;;;;;;;;7.46;64.46;102304.69;5021684;28;20340;-74
2023/04/05 08:15:04;;;;;;;;;;;;;;;7.70;65.40;102301.91;5044750;28;20429;-74
2023/04/05 08:17:29;;;;;;;;;;;;;;;7.93;60.26;102308.97;5044072;28;19974;-74
2023/04/05 08:19:55;;;;;;;;;;;;;;;7.77;60.81;102300.72;5037768;28;19930;-74
2023/04/05 08:22:20;;;;;;;;;;;;;;;8.14;63.04;102303.63;5040380;28;20305;-74
2023/04/05 08:24:45;;;;;;;;;;;;;;;8.20;63.10;102299.78;5039629;28;19924;-74
2023/04/05 08:27:10;;;;;;;;;;;;;;;8.49;56.55;102305.66;5044765;28;19928;-74
2023/04/05 08:29:36;;;;;;;;;;;;;;;8.66;60.53;102297.72;5039548;28;19920;-74
2023/04/05 08:32:01;;;;;;;;;;;;;;;8.90;55.87;102299.34;5034708;28;20034;-74
2023/04/05 08:34:26;;;;;;;;;;;;;;;9.14;56.08;102298.16;5043242;28;20369;-74
2023/04/05 08:36:52;;;;;;;;;;;;;;;9.44;53.65;102302.06;5039781;28;20014;-74
2023/04/05 08:39:17;;;;;;;;;;;;;;;9.35;54.29;102302.53;5022106;28;19929;-74
2023/04/05 08:41:47;;;;;;;;;;;;;;;9.48;54.48;102292.94;5035814;28;19975;-74
2023/04/05 08:44:12;;;;;;;;;;;;;;;9.75;51.70;102296.06;5038871;28;19931;-74
2023/04/05 08:46:37;;;;;;;;;;;;;;;9.72;50.38;102293.53;5034976;28;19928;-74
2023/04/05 08:49:06;;;;;;;;;;;;;;;10.11;52.62;102301.38;5036592;28;19987;-74
2023/04/05 08:51:32;;;;;;;;;;;;;;;9.99;49.42;102298.41;5021683;28;19927;-74
2023/04/05 08:53:57;;;;;;;;;;;;;;;9.77;48.03;102295.09;5021506;28;19924;-74
2023/04/05 08:56:29;;;;;;;;;;;;;;;10.07;52.44;102298.00;5050426;28;20247;-74
2023/04/05 08:59:01;;;;;;;;;;;;;;;9.53;50.81;102296.25;5030497;28;19932;-74
2023/04/05 09:01:27;;;;;;;;;;;;;;;9.43;53.39;102297.66;5051166;28;20005;-73
2023/04/05 09:03:52;;;;;;;;;;;;;;;9.35;51.97;102297.19;5036969;28;19931;-74
2023/04/05 09:06:17;;;;;;;;;;;;;;;9.60;51.51;102299.50;5036031;28;20539;-74
2023/04/05 09:08:42;;;;;;;;;;;;;;;9.79;49.42;102299.44;5032798;28;19921;-74
2023/04/05 09:11:07;;;;;;;;;;;;;;;10.13;48.81;102295.00;5020260;28;19959;-74
2023/04/05 09:13:33;;;;;;;;;;;;;;;10.34;50.89;102298.34;5038447;28;20351;-74
2023/04/05 09:16:00;;;;;;;;;;;;;;;9.99;51.30;102273.38;5036153;28;20449;-73
2023/04/05 09:18:25;;;;;;;;;;;;;;;9.97;51.24;102291.38;5039238;28;20600;-73
2023/04/05 09:20:50;;;;;;;;;;;;;;;9.48;50.18;102292.94;5041179;28;20006;-73
2023/04/05 09:23:15;;;;;;;;;;;;;;;9.92;55.87;102291.63;5034447;28;20073;-73
2023/04/05 09:25:41;;;;;;;;;;;;;;;10.15;46.16;102294.91;5034997;28;20370;-74
2023/04/05 09:28:07;;;;;;;;;;;;;;;9.64;47.62;102290.34;5039019;28;20461;-73
2023/04/05 09:30:32;;;;;;;;;;;;;;;9.85;43.89;102291.06;5051146;28;19920;-74
2023/04/05 09:32:57;;;;;;;;;;;;;;;10.00;51.25;102283.16;5019534;28;20622;-73
2023/04/05 09:35:23;;;;;;;;;;;;;;;10.46;46.85;102280.72;5054789;28;19921;-74
2023/04/05 09:37:52;;;;;;;;;;;;;;;10.75;45.78;102277.41;5016099;28;19936;-74
2023/04/05 09:40:17;;;;;;;;;;;;;;;10.74;46.52;102273.84;5032214;28;19928;-74
2023/04/05 09:42:44;;;;;;;;;;;;;;;10.42;47.06;102272.94;5022778;28;19927;-74
2023/04/05 09:45:10;;;;;;;;;;;;;;;10.55;49.60;102273.13;5027152;28;20664;-74
2023/04/05 09:47:35;;;;;;;;;;;;;;;10.19;45.06;102278.59;5017202;28;19970;-74
2023/04/05 09:50:03;;;;;;;;;;;;;;;10.42;45.78;102271.13;5034540;28;19931;-74
2023/04/05 09:52:30;;;;;;;;;;;;;;;10.52;46.07;102268.81;5019383;28;19924;-74
2023/04/05 09:54:56;;;;;;;;;;;;;;;10.32;44.92;102269.84;5037641;28;19928;-74
2023/04/05 09:57:22;;;;;;;;;;;;;;;10.25;48.42;102269.31;5033424;28;20293;-74
2023/04/05 09:59:47;;;;;;;;;;;;;;;10.63;46.10;102271.75;5033919;28;20354;-74
2023/04/05 10:02:12;;;;;;;;;;;;;;;11.09;45.38;102271.00;5022966;28;19927;-74
2023/04/05 10:04:40;;;;;;;;;;;;;;;11.74;43.16;102263.66;5050951;28;19925;-74
2023/04/05 10:07:05;;;;;;;;;;;;;;;12.34;40.64;102264.53;5030920;28;20328;-74
2023/04/05 10:09:31;;;;;;;;;;;;;;;12.34;39.42;102260.97;5043809;28;19975;-74
2023/04/05 10:11:56;;;;;;;;;;;;;;;12.74;38.35;102253.91;5035056;28;19921;-75
2023/04/05 10:14:22;;;;;;;;;;;;;;;12.95;40.49;102255.31;5052476;28;20890;-74
2023/04/05 10:16:47;;;;;;;;;;;;;;;13.11;37.56;102247.94;5031919;28;20362;-74
2023/04/05 10:19:15;;;;;;;;;;;;;;;13.50;36.10;102254.38;5055233;28;19931;-74
2023/04/05 10:21:41;;;;;;;;;;;;;;;13.37;37.57;102241.78;5041616;28;19920;-74
2023/04/05 10:24:09;;;;;;;;;;;;;;;13.06;39.01;102239.31;5035439;28;20320;-74
2023/04/05 10:27:01;;;;;;;;;;;;;;;13.33;37.37;102241.13;5033448;28;20452;-74
2023/04/05 10:29:34;;;;;;;;;;;;;;;13.79;35.70;102247.91;5052998;28;19927;-74
2023/04/05 10:32:18;;;;;;;;;;;;;;;14.06;33.29;102247.84;5053997;28;19952;-74
2023/04/05 10:34:49;;;;;;;;;;;;;;;14.35;33.13;102236.81;5033266;28;20062;-74
2023/04/05 10:37:23;;;;;;;;;;;;;;;14.57;32.97;102239.81;5032009;28;21385;-74
2023/04/05 10:39:48;;;;;;;;;;;;;;;14.47;33.20;102231.47;5047205;28;20365;-72
2023/04/05 10:42:20;;;;;;;;;;;;;;;14.87;33.10;102230.44;5049130;28;19917;-72
2023/04/05 10:44:45;;;;;;;;;;;;;;;14.89;33.59;102223.06;5039310;28;19920;-72
2023/04/05 10:47:12;;;;;;;;;;;;;;;14.48;36.44;102220.56;5023436;28;19924;-73
2023/04/05 10:49:47;;;;;;;;;;;;;;;14.61;33.29;102225.06;5047502;28;19988;-72
2023/04/05 10:52:12;;;;;;;;;;;;;;;14.82;34.85;102201.91;5026293;28;20226;-72
2023/04/05 10:54:37;;;;;;;;;;;;;;;14.95;32.52;102215.38;5044348;28;20029;-72
2023/04/05 10:57:06;;;;;;;;;;;;;;;15.75;34.95;102205.69;5047605;28;19920;-72
2023/04/05 10:59:31;;;;;;;;;;;;;;;16.33;30.95;102222.88;5025644;28;19921;-72
2023/04/05 11:01:57;;;;;;;;;;;;;;;16.27;30.85;102218.81;5043791;28;19966;-72
2023/04/05 11:04:22;;;;;;;;;;;;;;;16.62;31.61;102214.22;5024456;28;19925;-73
2023/04/05 11:06:48;;;;;;;;;;;;;;;16.24;30.34;102216.34;5045260;28;20458;-72
2023/04/05 11:09:17;;;;;;;;;;;;;;;16.81;29.25;102213.56;5046415;28;20361;-73
2023/04/05 11:11:43;;;;;;;;;;;;;;;17.20;33.83;102184.13;5049150;28;19963;-72
2023/04/05 11:14:17;;;;;;;;;;;;;;;17.46;29.93;102204.59;5046667;28;19928;-72
2023/04/05 11:16:44;;;;;;;;;;;;;;;17.35;29.71;102200.94;5039476;28;19924;-72
2023/04/05 11:19:10;;;;;;;;;;;;;;;17.43;31.13;102185.84;5047708;28;19921;-72
2023/04/05 11:21:35;;;;;;;;;;;;;;;18.11;28.28;102207.16;5027791;28;19928;-72
2023/04/05 11:24:07;;;;;;;;;;;;;;;19.21;27.97;102197.28;5045356;28;20397;-72
2023/04/05 11:26:34;;;;;;;;;;;;;;;18.93;28.09;102196.25;5029039;28;19958;-73
2023/04/05 11:29:00;;;;;;;;;;;;;;;18.75;26.26;102215.94;5024119;28;19955;-70
2023/04/05 11:31:25;;;;;;;;;;;;;;;18.39;26.92;102205.56;5028239;28;20011;-72
2023/04/05 11:33:55;;;;;;;;;;;;;;;18.94;29.34;102140.78;5047754;28;19920;-73
2023/04/05 11:36:40;;;;;;;;;;;;;;;18.69;28.03;102183.84;5047099;28;20111;-73
2023/04/05 11:39:17;;;;;;;;;;;;;;;17.36;29.05;102185.53;5044581;28;19920;-72
2023/04/05 11:41:43;;;;;;;;;;;;;;;16.89;29.18;102177.66;5029793;28;19921;-72
2023/04/05 11:44:12;;;;;;;;;;;;;;;18.06;28.56;102176.81;5046859;28;19944;-72
2023/04/05 11:46:37;;;;;;;;;;;;;;;18.87;26.42;102182.19;5031224;28;20341;-73
2023/04/05 11:49:02;;;;;;;;;;;;;;;18.61;27.36;102178.28;5032914;28;19932;-72
2023/04/05 11:51:28;;;;;;;;;;;;;;;18.94;27.76;102166.16;5030983;28;19925;-72
2023/04/05 11:53:53;;;;;;;;;;;;;;;19.08;27.96;102162.16;5046744;28;19920;-72
2023/04/05 11:56:19;;;;;;;;;;;;;;;19.31;25.91;102179.06;5044901;28;19931;-72
2023/04/05 11:58:44;;;;;;;;;;;;;;;19.05;28.25;102151.56;5050273;28;19921;-72
2023/04/05 12:01:09;;;;;;;;;;;;;;;17.51;30.71;102129.03;5025668;28;20337;-73
2023/04/05 12:03:35;;;;;;;;;;;;;;;16.64;29.17;102139.91;5046033;28;20200;-72
2023/04/05 12:06:01;;;;;;;;;;;;;;;17.23;27.64;102155.84;5046671;28;20481;-72
2023/04/05 12:08:39;;;;;;;;;;;;;;;16.93;29.25;102141.16;5045407;28;20342;-73
2023/04/05 12:11:05;;;;;;;;;;;;;;;17.74;29.25;102142.47;5027223;28;19951;-72
2023/04/05 12:13:31;;;;;;;;;;;;;;;17.58;31.27;102108.50;5048483;28;19920;-73
2023/04/05 12:16:00;;;;;;;;;;;;;;;17.88;28.93;102138.53;5029910;28;20264;-72
2023/04/05 12:18:26;;;;;;;;;;;;;;;16.85;29.05;102127.38;5032092;28;19950;-73
2023/04/05 12:20:52;;;;;;;;;;;;;;;17.39;28.50;102137.25;5033214;28;19932;-72
2023/04/05 12:23:17;;;;;;;;;;;;;;;18.02;27.91;102138.16;5035693;28;19920;-73
2023/04/05 12:25:45;;;;;;;;;;;;;;;19.42;25.70;102120.88;5057309;28;20438;-73
2023/04/05 12:28:10;;;;;;;;;;;;;;;20.86;25.58;102154.22;5026296;28;19943;-73
2023/04/05 12:30:36;;;;;;;;;;;;;;;21.22;25.45;102143.25;5052768;28;19952;-72